Time;durP1;ratioP1;P1;durP2;ratioP2;P2;SDS_P1;SDS_P2;PMS_P1;PMS_P2;Temp;Humidity;BMP_temperature;BMP_pressure;BME280_temperature;BME280_humidity;BME280_pressure;Samples;Min_cycle;Max_cycle;Signal;HPM_P1;HPM_P2
2021/07/11 00:00:14;;;;;;;20.67;15.48;;;21.00;99.90;;;;;;5034365;28;20026;-56
2021/07/11 00:02:40;;;;;;;19.00;16.75;;;20.90;99.90;;;;;;5033234;28;20037;-56
2021/07/11 00:05:09;;;;;;;19.63;16.13;;;20.90;99.90;;;;;;5012303;28;20378;-55
2021/07/11 00:07:34;;;;;;;19.02;17.05;;;20.80;99.90;;;;;;4979638;28;20046;-54
2021/07/11 00:10:01;;;;;;;20.83;16.48;;;20.80;99.90;;;;;;5012343;28;20046;-53
2021/07/11 00:12:27;;;;;;;20.08;17.60;;;20.70;99.90;;;;;;5012275;28;20404;-55
2021/07/11 00:14:54;;;;;;;19.48;17.38;;;20.70;99.90;;;;;;4979484;28;20042;-54
2021/07/11 00:17:20;;;;;;;19.80;17.65;;;20.70;99.90;;;;;;5011672;28;20083;-56
2021/07/11 00:19:46;;;;;;;19.63;17.63;;;20.70;99.90;;;;;;5012299;28;20117;-56
2021/07/11 00:22:12;;;;;;;23.83;16.15;;;20.60;99.90;;;;;;4979595;28;20188;-55
2021/07/11 00:24:40;;;;;;;20.35;16.25;;;20.60;99.90;;;;;;4995513;28;20030;-56
2021/07/11 00:27:07;;;;;;;17.85;15.98;;;20.50;99.90;;;;;;4979923;28;20485;-55
2021/07/11 00:29:34;;;;;;;18.63;16.05;;;20.50;99.90;;;;;;5011825;28;20033;-56
2021/07/11 00:31:59;;;;;;;19.10;15.05;;;20.50;99.90;;;;;;5011696;28;20061;-55
2021/07/11 00:34:25;;;;;;;21.60;17.40;;;20.50;99.90;;;;;;5011794;28;20544;-56
2021/07/11 00:36:51;;;;;;;18.63;16.00;;;20.50;99.90;;;;;;4999114;28;20033;-56
2021/07/11 00:39:17;;;;;;;20.90;16.77;;;20.50;99.90;;;;;;5033664;28;20017;-56
2021/07/11 00:41:43;;;;;;;18.60;16.45;;;20.40;99.90;;;;;;5033563;28;20079;-56
2021/07/11 00:44:09;;;;;;;18.65;16.05;;;20.50;99.90;;;;;;5033696;28;20057;-56
2021/07/11 00:46:36;;;;;;;20.50;16.98;;;20.50;99.90;;;;;;5033397;28;20029;-56
2021/07/11 00:49:06;;;;;;;18.92;15.60;;;20.50;99.90;;;;;;5033783;28;20036;-56
2021/07/11 00:51:35;;;;;;;19.50;15.65;;;20.40;99.90;;;;;;5033310;28;20041;-55
2021/07/11 00:54:02;;;;;;;19.65;15.45;;;20.50;99.90;;;;;;4982865;28;20042;-55
2021/07/11 00:56:28;;;;;;;19.33;15.55;;;20.50;99.90;;;;;;4982608;28;20412;-55
2021/07/11 00:58:55;;;;;;;16.92;15.10;;;20.40;99.90;;;;;;5033546;28;20026;-55
2021/07/11 01:01:32;;;;;;;18.55;16.02;;;20.40;99.90;;;;;;5033593;28;20037;-55
2021/07/11 01:04:02;;;;;;;16.75;15.05;;;20.40;99.90;;;;;;5033734;28;20030;-55
2021/07/11 01:06:29;;;;;;;17.77;14.73;;;20.40;99.90;;;;;;4998825;28;20033;-55
2021/07/11 01:09:07;;;;;;;19.00;17.10;;;20.40;99.90;;;;;;5033151;28;20049;-55
2021/07/11 01:11:43;;;;;;;19.58;16.90;;;20.30;99.90;;;;;;5014708;28;20042;-55
2021/07/11 01:14:10;;;;;;;17.98;16.10;;;20.30;99.90;;;;;;5033131;28;20163;-56
2021/07/11 01:16:38;;;;;;;19.35;17.35;;;20.30;99.90;;;;;;5033505;28;20025;-55
2021/07/11 01:19:50;;;;;;;18.77;15.52;;;20.30;99.90;;;;;;5015500;28;20053;-55
2021/07/11 01:22:18;;;;;;;;;;;20.20;99.90;;;;;;4992310;28;20042;-55
2021/07/11 01:24:50;;;;;;;19.40;17.23;;;20.20;99.90;;;;;;4991619;28;20257;-55
2021/07/11 01:27:18;;;;;;;18.60;16.67;;;20.20;99.90;;;;;;4991825;28;20023;-55
2021/07/11 01:29:45;;;;;;;19.92;17.70;;;20.20;99.90;;;;;;4991851;28;20397;-55
2021/07/11 01:32:12;;;;;;;19.85;17.80;;;20.10;99.90;;;;;;4991568;28;20053;-55
2021/07/11 01:34:39;;;;;;;19.00;17.15;;;20.10;99.90;;;;;;4992133;28;20049;-55
2021/07/11 01:37:04;;;;;;;24.90;17.95;;;20.10;99.90;;;;;;4991798;28;20037;-55
2021/07/11 01:39:31;;;;;;;20.27;18.05;;;20.10;99.90;;;;;;4991622;28;20039;-55
2021/07/11 01:41:58;;;;;;;21.00;17.15;;;20.10;99.90;;;;;;4991596;28;20065;-55
2021/07/11 01:44:27;;;;;;;20.55;18.40;;;20.10;99.90;;;;;;4991757;28;20042;-55
2021/07/11 01:46:54;;;;;;;20.90;17.48;;;20.00;99.90;;;;;;4991430;28;20054;-55
2021/07/11 01:49:20;;;;;;;20.63;18.52;;;20.00;99.90;;;;;;4991641;28;20148;-55
2021/07/11 01:51:47;;;;;;;19.17;16.90;;;20.00;99.90;;;;;;4991546;28;20038;-55
2021/07/11 01:54:13;;;;;;;20.73;18.58;;;20.00;99.90;;;;;;4975294;28;20045;-55
2021/07/11 01:56:40;;;;;;;24.17;20.52;;;19.90;99.90;;;;;;4996499;28;20076;-55
2021/07/11 01:59:09;;;;;;;25.15;20.60;;;19.80;99.90;;;;;;5032874;28;20368;-55
2021/07/11 02:01:35;;;;;;;26.95;21.17;;;19.70;99.90;;;;;;5032985;28;20484;-55
2021/07/11 02:04:01;;;;;;;23.17;20.75;;;19.60;99.90;;;;;;5032849;28;20034;-55
2021/07/11 02:06:27;;;;;;;22.65;20.23;;;19.60;99.90;;;;;;5033177;28;20473;-55
2021/07/11 02:08:53;;;;;;;24.65;20.80;;;19.50;99.90;;;;;;5032654;28;20029;-55
2021/07/11 02:11:21;;;;;;;22.30;19.77;;;19.50;99.90;;;;;;5032606;28;20050;-55
2021/07/11 02:13:54;;;;;;;31.20;20.98;;;19.40;99.90;;;;;;5032955;28;20030;-55
2021/07/11 02:17:08;;;;;;;22.80;19.92;;;19.40;99.90;;;;;;5032881;28;20022;-55
2021/07/11 02:19:35;;;;;;;23.98;19.20;;;19.30;99.90;;;;;;4991543;28;20408;-54
2021/07/11 02:22:03;;;;;;;24.85;20.40;;;19.30;99.90;;;;;;4975019;28;20035;-55
2021/07/11 02:24:29;;;;;;;23.20;18.90;;;19.30;99.90;;;;;;4952459;28;20087;-55
2021/07/11 02:26:55;;;;;;;21.52;18.27;;;19.30;99.90;;;;;;4955993;29;20049;-55
2021/07/11 02:29:24;;;;;;;22.40;19.42;;;19.30;99.90;;;;;;4955853;29;20047;-54
2021/07/11 02:31:50;;;;;;;20.75;18.52;;;19.20;99.90;;;;;;4956046;29;20479;-55
2021/07/11 02:34:16;;;;;;;21.33;17.20;;;19.20;99.90;;;;;;4956033;29;20123;-55
2021/07/11 02:36:51;;;;;;;20.38;18.38;;;19.20;99.90;;;;;;4955757;29;20051;-54
2021/07/11 02:39:19;;;;;;;20.25;17.42;;;19.20;99.90;;;;;;4955575;29;20027;-55
2021/07/11 02:42:14;;;;;;;20.13;18.08;;;19.30;99.90;;;;;;4955756;29;20078;-55
2021/07/11 02:44:48;;;;;;;20.15;17.70;;;19.20;99.90;;;;;;4955602;29;20043;-55
2021/07/11 02:47:17;;;;;;;20.75;18.65;;;19.20;99.90;;;;;;4955701;29;20039;-55
2021/07/11 02:49:49;;;;;;;20.30;18.15;;;19.30;99.90;;;;;;4955524;29;20039;-55
2021/07/11 02:52:18;;;;;;;23.17;20.75;;;19.30;99.90;;;;;;4955813;29;20105;-55
2021/07/11 02:55:04;;;;;;;23.63;20.30;;;19.20;99.90;;;;;;4955579;29;20477;-54
2021/07/11 02:57:31;;;;;;;23.40;20.98;;;19.10;99.90;;;;;;4974580;28;20150;-55
2021/07/11 02:59:58;;;;;;;26.95;21.52;;;19.10;99.90;;;;;;4974592;28;20042;-55
2021/07/11 03:02:26;;;;;;;27.02;21.77;;;19.00;99.90;;;;;;5018623;28;20037;-54
2021/07/11 03:04:53;;;;;;;23.58;20.23;;;18.90;99.90;;;;;;5035805;28;20017;-55
2021/07/11 03:07:19;;;;;;;23.73;20.10;;;18.90;99.90;;;;;;5035646;28;20124;-55
2021/07/11 03:09:45;;;;;;;26.63;21.10;;;18.90;99.90;;;;;;5035623;28;20026;-55
2021/07/11 03:12:13;;;;;;;26.67;23.67;;;18.80;99.90;;;;;;5035097;28;20492;-54
2021/07/11 03:14:39;;;;;;;31.17;25.48;;;18.90;99.90;;;;;;5035297;28;20372;-55
2021/07/11 03:17:06;;;;;;;27.95;24.25;;;18.80;99.90;;;;;;5035267;28;20025;-55
2021/07/11 03:19:37;;;;;;;26.40;23.60;;;18.90;99.90;;;;;;5035180;28;20511;-54
2021/07/11 03:22:04;;;;;;;26.42;22.20;;;18.90;99.90;;;;;;5035324;28;20427;-55
2021/07/11 03:24:31;;;;;;;25.23;22.35;;;19.00;99.90;;;;;;5035109;28;20030;-55
2021/07/11 03:26:58;;;;;;;22.52;20.00;;;19.00;99.90;;;;;;5035100;28;20021;-55
2021/07/11 03:29:41;;;;;;;24.23;21.35;;;19.00;99.90;;;;;;5031945;28;20029;-54
2021/07/11 03:32:10;;;;;;;24.33;20.75;;;19.00;99.90;;;;;;5034823;28;20043;-55
2021/07/11 03:34:36;;;;;;;22.08;19.13;;;18.90;99.90;;;;;;5034983;28;20075;-54
2021/07/11 03:37:10;;;;;;;25.00;18.58;;;19.00;99.90;;;;;;5034637;28;20428;-54
2021/07/11 03:39:48;;;;;;;22.40;19.23;;;18.90;99.90;;;;;;5034965;28;20064;-54
2021/07/11 03:42:16;;;;;;;22.33;17.98;;;18.90;99.90;;;;;;5034681;28;20538;-54
2021/07/11 03:44:47;;;;;;;20.02;18.02;;;18.80;99.90;;;;;;5034735;28;20087;-53
2021/07/11 03:47:17;;;;;;;21.17;18.30;;;18.70;99.90;;;;;;5034501;28;20095;-54
2021/07/11 03:49:48;;;;;;;22.30;19.92;;;18.50;99.90;;;;;;5034688;28;20025;-53
2021/07/11 03:52:16;;;;;;;20.38;18.10;;;18.40;99.90;;;;;;5034339;28;20121;-54
2021/07/11 03:54:44;;;;;;;19.80;17.77;;;18.50;99.90;;;;;;5034291;28;20021;-54
2021/07/11 03:57:11;;;;;;;18.75;16.95;;;18.60;99.90;;;;;;5034648;28;20033;-54
2021/07/11 03:59:39;;;;;;;22.25;19.17;;;18.60;99.90;;;;;;5034448;28;20396;-54
2021/07/11 04:02:07;;;;;;;23.08;18.50;;;18.60;99.90;;;;;;5034321;28;20025;-54
2021/07/11 04:04:37;;;;;;;20.55;18.30;;;18.50;99.90;;;;;;5015912;28;20171;-54
2021/07/11 04:07:05;;;;;;;21.95;19.17;;;18.60;99.90;;;;;;5034232;28;20357;-54
2021/07/11 04:09:32;;;;;;;20.67;18.48;;;18.60;99.90;;;;;;5034388;28;20228;-54
2021/07/11 04:11:58;;;;;;;21.27;19.00;;;;;;;;;;5034043;28;20136;-54
2021/07/11 04:14:24;;;;;;;24.35;17.95;;;18.60;99.90;;;;;;5034223;28;20034;-54
2021/07/11 04:16:59;;;;;;;21.85;18.23;;;18.80;99.90;;;;;;4982671;28;20037;-55
2021/07/11 05:56:46;;;;;;;18.85;16.88;;;23.40;99.90;;;;;;5044525;28;1336919;-57
2021/07/11 05:59:12;;;;;;;21.73;16.63;;;23.30;99.90;;;;;;5093544;28;20123;-57
2021/07/11 06:01:38;;;;;;;18.50;16.80;;;23.20;99.90;;;;;;5093702;28;20064;-58
2021/07/11 06:04:04;;;;;;;19.33;17.35;;;23.20;99.90;;;;;;5091981;28;20027;-58
2021/07/11 06:06:29;;;;;;;20.05;17.80;;;23.40;99.90;;;;;;5036508;28;20192;-58
2021/07/11 06:08:55;;;;;;;22.63;17.80;;;23.50;99.90;;;;;;5007502;28;20499;-58
2021/07/11 06:11:21;;;;;;;20.02;17.98;;;23.40;99.90;;;;;;5091337;28;20375;-57
2021/07/11 06:13:47;;;;;;;18.42;16.40;;;23.40;99.90;;;;;;5084782;28;20032;-57
2021/07/11 06:16:13;;;;;;;17.65;15.90;;;23.40;99.90;;;;;;5069199;28;20044;-57
2021/07/11 06:18:39;;;;;;;21.15;15.88;;;23.60;99.90;;;;;;5056466;28;20515;-58
2021/07/11 06:21:05;;;;;;;16.98;15.15;;;23.80;99.90;;;;;;5086192;28;20132;-58
2021/07/11 06:23:30;;;;;;;15.95;14.35;;;23.90;99.90;;;;;;5032256;28;20121;-58
2021/07/11 06:25:56;;;;;;;17.15;12.65;;;24.10;99.90;;;;;;5057048;28;20390;-58
2021/07/11 06:28:22;;;;;;;14.40;12.27;;;24.30;99.90;;;;;;5091381;28;20020;-58
2021/07/11 06:30:48;;;;;;;15.57;11.40;;;24.50;99.90;;;;;;5089610;28;20024;-58
2021/07/11 06:33:14;;;;;;;15.45;11.35;;;24.70;99.90;;;;;;5060313;28;20039;-58
2021/07/11 06:35:39;;;;;;;13.15;10.05;;;24.90;99.70;;;;;;5051205;28;20119;-58
2021/07/11 06:38:05;;;;;;;11.00;9.43;;;25.10;98.60;;;;;;4992866;28;20105;-58
2021/07/11 06:40:31;;;;;;;14.35;9.02;;;25.30;97.60;;;;;;5089129;28;20458;-58
2021/07/11 06:42:57;;;;;;;14.60;8.02;;;25.60;97.60;;;;;;5026544;28;20089;-58
2021/07/11 06:45:22;;;;;;;10.85;7.50;;;25.70;96.20;;;;;;5056046;28;20047;-58
2021/07/11 06:47:48;;;;;;;9.15;6.80;;;25.90;95.70;;;;;;5053929;28;20387;-58
2021/07/11 06:50:16;;;;;;;12.10;5.78;;;26.20;93.80;;;;;;5047986;28;20039;-58
2021/07/11 06:52:44;;;;;;;11.93;5.70;;;;;;;;;;5087198;28;20378;-58
2021/07/11 06:55:11;;;;;;;8.65;4.93;;;26.50;90.50;;;;;;5087667;28;20032;-58
2021/07/11 06:57:40;;;;;;;9.00;4.90;;;26.60;88.60;;;;;;5049181;28;20041;-58
2021/07/11 07:00:08;;;;;;;8.48;4.68;;;26.70;86.90;;;;;;5069377;28;20020;-58
2021/07/11 07:02:34;;;;;;;8.15;4.70;;;26.90;86.30;;;;;;5018522;28;20403;-58
2021/07/11 07:05:00;;;;;;;7.25;5.07;;;;;;;;;;5068572;28;20063;-58
2021/07/11 07:07:26;;;;;;;9.23;5.75;;;27.10;84.00;;;;;;5067747;28;20457;-58
2021/07/11 07:09:52;;;;;;;8.25;4.80;;;27.40;86.90;;;;;;5066264;28;20090;-58
2021/07/11 07:12:18;;;;;;;6.22;4.50;;;27.50;85.40;;;;;;5067179;28;20078;-58
2021/07/11 07:14:44;;;;;;;7.10;5.22;;;;;;;;;;5067131;28;20078;-57
2021/07/11 07:17:10;;;;;;;10.93;5.53;;;27.70;83.60;;;;;;5068533;28;20123;-57
2021/07/11 07:19:36;;;;;;;18.40;6.38;;;27.80;83.90;;;;;;5070803;28;20570;-57
2021/07/11 07:22:02;;;;;;;7.13;5.43;;;;;;;;;;5049635;28;20089;-57
2021/07/11 07:24:28;;;;;;;10.88;6.47;;;28.10;82.70;;;;;;5069484;28;20032;-59
2021/07/11 07:26:54;;;;;;;7.45;5.60;;;28.00;83.00;;;;;;5071142;28;20029;-57
2021/07/11 07:29:19;;;;;;;9.95;6.22;;;28.10;82.60;;;;;;5068693;28;20029;-57
2021/07/11 07:31:47;;;;;;;8.35;5.50;;;28.10;81.90;;;;;;5066158;28;20442;-58
2021/07/11 07:34:14;;;;;;;12.05;5.65;;;28.20;81.00;;;;;;5065286;28;20048;-57
2021/07/11 07:36:40;;;;;;;7.80;5.60;;;28.30;79.70;;;;;;5066326;28;20429;-57
2021/07/11 07:39:06;;;;;;;6.60;5.60;;;28.30;79.90;;;;;;5051573;28;20395;-57
2021/07/11 07:41:32;;;;;;;5.07;4.57;;;28.30;79.10;;;;;;5070803;28;20471;-57
2021/07/11 07:43:58;;;;;;;9.55;5.03;;;28.40;76.60;;;;;;5066457;28;20119;-56
2021/07/11 07:46:24;;;;;;;8.32;4.63;;;28.60;77.70;;;;;;5072277;28;20043;-56
2021/07/11 07:48:50;;;;;;;8.82;4.88;;;28.70;77.10;;;;;;5069859;28;20056;-56
2021/07/11 07:51:16;;;;;;;7.03;4.93;;;28.60;74.30;;;;;;5068241;28;20024;-56
2021/07/11 07:53:42;;;;;;;8.35;5.10;;;28.70;76.00;;;;;;5073850;28;20021;-56
2021/07/11 07:56:07;;;;;;;8.05;4.85;;;28.90;76.00;;;;;;5080861;28;20085;-57
2021/07/11 07:58:33;;;;;;;11.48;5.03;;;28.90;75.10;;;;;;5075819;28;20028;-57
2021/07/11 08:00:59;;;;;;;8.32;4.93;;;29.00;75.30;;;;;;5094106;28;20028;-55
2021/07/11 08:03:24;;;;;;;10.00;5.35;;;29.10;75.90;;;;;;5041425;28;20044;-57
2021/07/11 08:05:50;;;;;;;7.63;4.65;;;29.30;74.40;;;;;;5058776;28;20040;-57
2021/07/11 08:08:16;;;;;;;5.13;4.45;;;;;;;;;;5094010;28;20066;-56
2021/07/11 08:10:42;;;;;;;6.38;3.92;;;;;;;;;;5058849;28;20458;-56
2021/07/11 08:13:08;;;;;;;8.40;4.18;;;;;;;;;;5093904;28;20016;-56
2021/07/11 08:15:35;;;;;;;5.45;4.15;;;29.50;70.10;;;;;;5093835;28;20085;-57
2021/07/11 08:18:00;;;;;;;7.40;3.92;;;29.50;69.80;;;;;;5093647;28;20028;-57
2021/07/11 08:20:26;;;;;;;6.55;3.60;;;29.50;69.50;;;;;;5094023;28;20032;-57
2021/07/11 08:22:53;;;;;;;6.93;4.10;;;;;;;;;;5093738;28;20035;-56
2021/07/11 08:25:19;;;;;;;9.60;4.75;;;29.90;70.00;;;;;;5093693;28;20103;-56
2021/07/11 08:27:46;;;;;;;5.97;3.85;;;30.20;78.50;;;;;;5058654;28;20162;-56
2021/07/11 08:30:13;;;;;;;6.57;3.63;;;30.00;74.70;;;;;;5093677;28;20089;-56
2021/07/11 08:32:40;;;;;;;6.93;3.67;;;30.10;71.00;;;;;;5093714;28;20031;-56
2021/07/11 08:35:07;;;;;;;7.88;3.83;;;30.20;68.80;;;;;;5093736;28;20031;-56
2021/07/11 08:37:34;;;;;;;5.28;3.90;;;30.40;68.30;;;;;;5093727;28;20065;-57
2021/07/11 08:40:00;;;;;;;14.55;11.55;;;;;;;;;;5058198;28;20036;-56
2021/07/11 08:42:26;;;;;;;7.13;3.90;;;31.80;65.80;;;;;;5093669;28;20034;-56
2021/07/11 08:44:53;;;;;;;7.60;4.40;;;32.40;66.80;;;;;;5093522;28;20026;-57
2021/07/11 08:47:19;;;;;;;6.20;4.80;;;;;;;;;;5093292;28;20095;-56
2021/07/11 08:49:46;;;;;;;10.15;6.82;;;33.40;59.00;;;;;;5093459;28;20035;-57
2021/07/11 08:52:12;;;;;;;5.97;4.78;;;33.80;60.30;;;;;;5093573;28;20409;-56
2021/07/11 08:54:38;;;;;;;5.30;3.75;;;34.40;58.30;;;;;;5093429;28;20032;-56
2021/07/11 08:57:06;;;;;;;6.43;4.07;;;;;;;;;;5093282;28;20093;-57
2021/07/11 08:59:32;;;;;;;7.55;4.10;;;35.60;55.90;;;;;;5093421;28;20024;-57
2021/07/11 09:01:58;;;;;;;5.28;3.45;;;36.00;55.50;;;;;;5093366;28;20031;-57
2021/07/11 09:04:25;;;;;;;7.63;3.53;;;37.40;55.00;;;;;;5093294;28;20028;-56
2021/07/11 09:06:55;;;;;;;5.55;2.83;;;37.50;54.40;;;;;;5093402;28;20020;-57
2021/07/11 09:09:29;;;;;;;8.05;3.40;;;36.60;52.20;;;;;;5093196;28;20086;-57
2021/07/11 09:12:01;;;;;;;14.13;4.35;;;;;;;;;;5093287;28;20024;-57
2021/07/11 09:14:29;;;;;;;9.40;3.50;;;38.80;89.00;;;;;;5093181;28;20090;-57
2021/07/11 09:16:56;;;;;;;5.40;3.63;;;;;;;;;;5093282;28;20020;-57
2021/07/11 09:19:34;;;;;;;5.93;3.47;;;40.20;48.90;;;;;;5093278;28;20028;-57
2021/07/11 09:22:05;;;;;;;4.65;3.58;;;40.50;49.00;;;;;;5093225;28;20028;-57
2021/07/11 09:24:33;;;;;;;4.35;3.05;;;40.90;47.50;;;;;;5050868;28;20110;-57
2021/07/11 09:27:16;;;;;;;5.63;3.47;;;39.90;48.60;;;;;;5050735;28;20041;-57
2021/07/11 09:29:43;;;;;;;5.40;3.40;;;40.40;47.20;;;;;;5052044;28;20033;-57
2021/07/11 09:32:24;;;;;;;5.63;3.50;;;41.00;48.30;;;;;;5054689;28;20025;-57
2021/07/11 09:34:50;;;;;;;5.78;3.42;;;;;;;;;;5004203;28;20044;-57
2021/07/11 09:37:17;;;;;;;6.65;3.20;;;41.20;46.40;;;;;;5054466;28;20033;-58
2021/07/11 09:39:52;;;;;;;3.30;2.90;;;;;;;;;;5051452;28;20136;-56
2021/07/11 09:42:30;;;;;;;8.45;3.20;;;41.60;45.10;;;;;;5052699;28;20052;-57
2021/07/11 09:44:56;;;;;;;5.32;3.22;;;;;;;;;;5052779;28;20079;-57
2021/07/11 09:47:24;;;;;;;8.25;3.50;;;;;;;;;;5052988;28;20051;-57
2021/07/11 09:50:20;;;;;;;6.03;3.20;;;40.80;64.10;;;;;;5050390;28;20036;-57
2021/07/11 09:52:51;;;;;;;5.90;3.45;;;40.60;47.00;;;;;;5042803;28;20110;-57
2021/07/11 09:55:19;;;;;;;5.22;3.40;;;;;;;;;;5027277;28;20052;-57
2021/07/11 09:57:56;;;;;;;5.82;3.00;;;43.60;44.40;;;;;;5083542;28;20048;-56
2021/07/11 10:00:29;;;;;;;5.32;3.30;;;44.90;43.90;;;;;;5092181;28;20031;-57
2021/07/11 10:03:01;;;;;;;5.35;3.13;;;44.60;43.30;;;;;;5093623;28;20043;-57
2021/07/11 10:05:28;;;;;;;5.05;3.05;;;44.60;43.10;;;;;;5040710;28;20028;-58
2021/07/11 10:07:54;;;;;;;9.85;3.38;;;46.00;43.50;;;;;;5058300;28;20035;-58
2021/07/11 10:10:22;;;;;;;8.68;3.38;;;;;;;;;;5094897;28;20470;-58
2021/07/11 10:12:52;;;;;;;6.63;3.70;;;47.80;46.50;;;;;;5041340;28;20040;-56
2021/07/11 10:15:20;;;;;;;3.30;3.00;;;47.10;41.00;;;;;;5090660;28;20055;-55
2021/07/11 10:17:57;;;;;;;5.50;2.78;;;47.80;45.90;;;;;;5075968;28;20497;-56
2021/07/11 10:20:40;;;;;;;7.80;3.33;;;46.60;53.20;;;;;;5094847;28;20020;-55
2021/07/11 10:23:07;;;;;;;5.15;2.88;;;47.40;45.70;;;;;;5077592;28;20457;-57
2021/07/11 10:25:34;;;;;;;5.70;2.75;;;48.70;40.50;;;;;;5040012;28;20573;-56
2021/07/11 10:28:23;;;;;;;3.67;3.30;;;48.50;40.00;;;;;;5094660;28;20036;-58
2021/07/11 10:30:48;;;;;;;5.80;2.65;;;49.60;39.80;;;;;;5094806;28;20133;-58
2021/07/11 10:33:19;;;;;;;4.70;2.55;;;49.10;39.20;;;;;;5094628;28;20024;-57
2021/07/11 10:36:15;;;;;;;4.68;2.78;;;49.90;38.90;;;;;;5093806;28;20028;-57
2021/07/11 10:38:55;;;;;;;4.95;2.72;;;48.50;39.40;;;;;;4995687;28;20042;-57
2021/07/11 10:41:28;;;;;;;4.22;2.72;;;47.20;38.90;;;;;;4995619;28;20034;-57
2021/07/11 10:44:06;;;;;;;8.05;2.95;;;48.30;39.90;;;;;;4993420;28;20128;-56
2021/07/11 10:46:37;;;;;;;4.63;2.63;;;48.60;38.30;;;;;;4976221;28;20375;-58
2021/07/11 10:49:33;;;;;;;12.00;3.30;;;;;;;;;;4992535;28;20041;-56
2021/07/11 10:52:04;;;;;;;5.25;3.10;;;49.40;37.70;;;;;;4990201;28;20034;-57
2021/07/11 10:54:30;;;;;;;6.55;2.70;;;;;;;;;;4992396;28;20044;-57
2021/07/11 10:57:07;;;;;;;6.38;2.45;;;50.40;37.30;;;;;;4992162;28;20050;-56
2021/07/11 10:59:35;;;;;;;7.25;2.58;;;50.90;37.60;;;;;;4945200;28;20092;-58
2021/07/11 11:02:06;;;;;;;7.63;3.00;;;;;;;;;;4993142;28;20528;-57
2021/07/11 11:04:32;;;;;;;2.92;2.38;;;;;;;;;;4992906;28;20038;-57
2021/07/11 11:07:15;;;;;;;4.22;2.70;;;51.20;36.40;;;;;;4987424;28;20530;-56
2021/07/11 11:09:43;;;;;;;5.93;2.70;;;50.20;37.20;;;;;;5010803;28;20180;-57
2021/07/11 11:12:27;;;;;;;11.05;3.10;;;49.30;37.10;;;;;;4986427;28;20039;-56
2021/07/11 11:15:02;;;;;;;7.20;2.75;;;50.90;36.90;;;;;;5011729;28;20037;-57
2021/07/11 11:17:30;;;;;;;4.65;2.50;;;;;;;;;;5052426;28;20117;-57
2021/07/11 11:19:56;;;;;;;5.65;3.13;;;51.80;35.60;;;;;;5019144;28;20560;-57
2021/07/11 11:22:22;;;;;;;4.43;2.60;;;49.50;35.80;;;;;;5052390;28;20128;-57
2021/07/11 11:24:48;;;;;;;4.05;2.53;;;52.10;36.60;;;;;;5019038;28;20121;-57
2021/07/11 11:27:13;;;;;;;6.75;2.80;;;51.30;35.10;;;;;;5052656;28;20025;-56
2021/07/11 11:29:39;;;;;;;4.50;2.28;;;51.20;35.30;;;;;;5052321;28;20452;-57
2021/07/11 11:32:11;;;;;;;4.85;2.50;;;;;;;;;;5052229;28;20103;-56
2021/07/11 11:34:36;;;;;;;6.53;2.67;;;51.00;53.00;;;;;;5052324;28;20060;-57
2021/07/11 11:37:04;;;;;;;4.68;2.53;;;51.60;35.70;;;;;;5052365;28;20076;-57
2021/07/11 11:39:34;;;;;;;12.90;4.10;;;51.60;35.00;;;;;;5052358;28;20037;-58
2021/07/11 11:42:04;;;;;;;9.73;2.92;;;47.90;34.80;;;;;;5052095;28;20059;-57
2021/07/11 11:44:30;;;;;;;11.82;2.85;;;49.60;36.90;;;;;;5017960;28;20040;-56
2021/07/11 11:46:59;;;;;;;5.15;2.85;;;50.10;34.80;;;;;;5003994;28;20064;-58
2021/07/11 11:49:28;;;;;;;6.18;2.75;;;51.60;35.40;;;;;;5053675;28;20033;-57
2021/07/11 11:51:58;;;;;;;5.00;2.78;;;52.40;34.90;;;;;;5073581;28;20482;-56
2021/07/11 11:54:33;;;;;;;4.15;2.40;;;;;;;;;;5087099;28;20028;-58
2021/07/11 11:57:00;;;;;;;4.63;2.15;;;53.50;33.50;;;;;;5093855;28;20105;-57
2021/07/11 11:59:27;;;;;;;4.55;2.67;;;53.70;33.70;;;;;;5094162;28;20024;-57
2021/07/11 12:01:57;;;;;;;10.15;2.85;;;;;;;;;;5071461;28;20032;-56
2021/07/11 12:04:24;;;;;;;3.63;2.63;;;52.70;34.20;;;;;;5070695;28;20048;-56
2021/07/11 12:06:52;;;;;;;7.50;3.55;;;52.40;35.80;;;;;;5071671;28;20312;-57
2021/07/11 12:09:23;;;;;;;7.20;2.58;;;54.20;35.10;;;;;;5053442;28;20083;-57
2021/07/11 12:12:06;;;;;;;5.32;2.78;;;54.20;34.80;;;;;;5049083;28;20045;-57
2021/07/11 12:14:35;;;;;;;13.77;3.75;;;55.40;34.00;;;;;;5051454;28;20475;-57
2021/07/11 12:17:05;;;;;;;8.98;2.78;;;;;;;;;;5051692;28;20041;-56
2021/07/11 12:19:42;;;;;;;7.95;2.67;;;;;;;;;;5051523;28;20487;-57
2021/07/11 12:22:15;;;;;;;5.20;2.80;;;55.20;60.50;;;;;;5051465;28;20033;-57
2021/07/11 12:24:40;;;;;;;5.82;2.70;;;54.70;32.70;;;;;;5051475;28;20526;-57
2021/07/11 12:27:07;;;;;;;7.43;2.92;;;56.10;36.70;;;;;;5018121;28;20028;-56
2021/07/11 12:29:34;;;;;;;10.60;2.90;;;56.50;32.70;;;;;;5066386;28;20122;-57
2021/07/11 12:32:03;;;;;;;4.32;2.40;;;56.80;32.50;;;;;;5074594;28;20115;-56
2021/07/11 12:34:29;;;;;;;4.38;2.58;;;56.90;32.60;;;;;;5093642;28;20039;-57
2021/07/11 12:37:05;;;;;;;8.50;2.45;;;55.60;32.10;;;;;;5093702;28;20119;-56
2021/07/11 12:39:32;;;;;;;13.57;3.03;;;54.30;33.70;;;;;;5091962;28;20032;-55
2021/07/11 12:41:58;;;;;;;7.47;3.08;;;53.20;33.50;;;;;;5092403;28;20054;-54
2021/07/11 12:44:32;;;;;;;12.05;3.15;;;;;;;;;;5074545;28;20391;-55
2021/07/11 12:47:06;;;;;;;7.22;3.50;;;50.90;33.20;;;;;;5093680;28;20028;-54
2021/07/11 12:49:33;;;;;;;4.70;2.80;;;;;;;;;;5059054;28;20036;-54
2021/07/11 12:52:00;;;;;;;4.15;2.53;;;;;;;;;;5093410;28;20021;-53
2021/07/11 12:54:26;;;;;;;5.20;3.00;;;49.60;34.60;;;;;;5074722;28;20483;-54
2021/07/11 12:56:58;;;;;;;4.93;2.88;;;50.40;35.60;;;;;;5092957;28;20514;-54
2021/07/11 12:59:39;;;;;;;8.68;2.80;;;49.50;35.10;;;;;;5091921;28;20097;-54
2021/07/11 13:02:17;;;;;;;6.20;3.05;;;49.60;35.40;;;;;;5093396;28;20081;-57
2021/07/11 13:04:54;;;;;;;8.50;2.88;;;48.90;35.60;;;;;;5095892;28;20035;-57
2021/07/11 13:07:24;;;;;;;6.65;3.08;;;47.70;36.60;;;;;;5078692;28;20047;-56
2021/07/11 13:09:50;;;;;;;8.52;2.78;;;47.80;36.90;;;;;;5097483;28;20032;-56
2021/07/11 13:12:16;;;;;;;5.22;3.40;;;48.00;37.30;;;;;;5097421;28;20031;-56
2021/07/11 13:14:55;;;;;;;7.03;2.78;;;;;;;;;;5096969;28;20379;-56
2021/07/11 13:17:21;;;;;;;5.57;2.80;;;45.90;37.10;;;;;;5096629;28;20047;-55
2021/07/11 13:19:48;;;;;;;4.25;2.72;;;45.90;38.00;;;;;;5097130;28;20486;-57
2021/07/11 13:22:13;;;;;;;6.07;2.75;;;45.90;38.00;;;;;;5095643;28;20039;-57
2021/07/11 13:24:39;;;;;;;3.38;2.53;;;45.70;37.80;;;;;;5095836;28;20040;-56
2021/07/11 13:27:05;;;;;;;6.50;2.80;;;45.60;38.90;;;;;;5095864;28;20039;-56
2021/07/11 13:29:31;;;;;;;4.80;3.10;;;45.10;38.50;;;;;;5083772;28;20086;-57
2021/07/11 13:31:57;;;;;;;11.00;4.20;;;44.70;39.30;;;;;;5023881;28;20036;-56
2021/07/11 13:34:22;;;;;;;4.00;3.40;;;43.90;40.10;;;;;;5075492;28;20151;-56
2021/07/11 13:36:48;;;;;;;3.72;3.17;;;43.10;39.60;;;;;;5075377;28;20056;-56
2021/07/11 13:39:15;;;;;;;7.13;2.95;;;;;;;;;;5075462;28;20032;-56
2021/07/11 13:41:40;;;;;;;5.72;3.22;;;42.30;40.20;;;;;;5075331;28;20039;-56
2021/07/11 13:44:06;;;;;;;6.53;2.90;;;41.90;41.90;;;;;;5075396;28;20025;-56
2021/07/11 13:46:32;;;;;;;6.18;3.33;;;41.50;41.80;;;;;;5075217;28;20705;-56
2021/07/11 13:48:59;;;;;;;4.65;3.53;;;41.60;42.20;;;;;;5075113;28;20043;-57
2021/07/11 13:51:26;;;;;;;4.47;3.05;;;41.10;42.30;;;;;;5059225;28;20133;-56
2021/07/11 13:53:52;;;;;;;5.28;2.97;;;40.80;42.30;;;;;;5089948;28;20016;-56
2021/07/11 13:56:18;;;;;;;9.63;3.15;;;40.40;48.80;;;;;;5085831;28;20055;-56
2021/07/11 13:58:44;;;;;;;6.10;3.08;;;40.30;43.50;;;;;;5081868;28;20028;-56
2021/07/11 14:01:10;;;;;;;4.82;3.30;;;40.00;43.00;;;;;;5075285;28;20024;-56
2021/07/11 14:03:36;;;;;;;7.40;3.03;;;39.70;43.70;;;;;;5090319;28;20040;-59
2021/07/11 14:06:02;;;;;;;7.35;3.22;;;;;;;;;;5087060;28;20031;-58
2021/07/11 14:08:30;;;;;;;3.88;2.88;;;39.60;76.40;;;;;;5084156;28;20493;-58
2021/07/11 14:11:00;;;;;;;5.50;3.70;;;39.60;60.80;;;;;;5083192;28;20364;-59
2021/07/11 14:13:26;;;;;;;8.77;3.40;;;39.30;44.00;;;;;;5075758;28;20029;-58
2021/07/11 14:15:52;;;;;;;4.53;3.08;;;39.30;44.10;;;;;;5074010;28;20059;-59
2021/07/11 14:18:19;;;;;;;8.48;3.25;;;39.50;43.90;;;;;;5074681;28;20025;-57
2021/07/11 14:20:45;;;;;;;5.30;3.30;;;39.80;44.00;;;;;;5074518;28;20035;-58
2021/07/11 14:23:11;;;;;;;9.52;3.25;;;39.50;44.00;;;;;;5074534;28;20094;-58
2021/07/11 14:25:40;;;;;;;4.35;3.35;;;39.30;43.90;;;;;;5075581;28;20479;-58
2021/07/11 14:28:06;;;;;;;6.70;3.60;;;39.00;44.30;;;;;;5094382;28;20028;-58
2021/07/11 14:30:35;;;;;;;5.55;4.03;;;39.10;44.40;;;;;;5094600;28;20028;-58
2021/07/11 14:33:02;;;;;;;14.35;3.80;;;39.10;44.80;;;;;;5094625;28;20038;-59
2021/07/11 14:35:28;;;;;;;4.15;3.20;;;38.80;44.00;;;;;;5094557;28;20367;-59